createdAt,value
2022-12-07T00:01:34.163Z,100820.75
2022-12-07T00:04:05.969Z,100826.09
2022-12-07T00:06:38.481Z,100815.41
2022-12-07T00:09:06.449Z,100821.72
2022-12-07T00:11:33.769Z,100820.88
2022-12-07T00:14:03.586Z,100823.56
2022-12-07T00:16:32.690Z,100821.03
2022-12-07T00:18:59.728Z,100823.00
2022-12-07T00:21:28.823Z,100820.31
2022-12-07T00:23:56.521Z,100817.66
2022-12-07T00:26:35.014Z,100817.50
2022-12-07T00:29:07.747Z,100813.97
2022-12-07T00:31:39.503Z,100816.66
2022-12-07T00:34:07.293Z,100801.63
2022-12-07T00:36:33.782Z,100801.47
2022-12-07T00:39:03.100Z,100801.47
2022-12-07T00:41:30.432Z,100810.34
2022-12-07T00:43:57.714Z,100801.47
2022-12-07T00:46:24.931Z,100803.16
2022-12-07T00:48:52.476Z,100801.34
2022-12-07T00:51:20.518Z,100801.34
2022-12-07T00:53:47.393Z,100801.34
2022-12-07T00:56:19.811Z,100795.16
2022-12-07T00:58:54.801Z,100794.31
2022-12-07T01:01:21.379Z,100790.78
2022-12-07T01:03:48.057Z,100790.94
2022-12-07T01:06:17.371Z,100794.56
2022-12-07T01:08:43.726Z,100800.91
2022-12-07T01:11:14.741Z,100797.41
2022-12-07T01:13:41.901Z,100799.34
2022-12-07T01:16:10.947Z,100800.19
2022-12-07T01:18:38.015Z,100795.84
2022-12-07T01:21:10.067Z,100795.00
2022-12-07T01:23:36.916Z,100797.69
2022-12-07T01:26:07.000Z,100798.53
2022-12-07T01:28:34.217Z,100799.50
2022-12-07T01:31:03.931Z,100795.84
2022-12-07T01:33:33.298Z,100795.97
2022-12-07T01:36:20.377Z,100807.53
2022-12-07T01:38:48.785Z,100800.47
2022-12-07T01:41:16.171Z,100797.81
2022-12-07T01:44:11.259Z,100796.13
2022-12-07T01:46:38.303Z,100801.59
2022-12-07T01:49:08.741Z,100799.09
2022-12-07T01:51:36.208Z,100811.72
2022-12-07T01:54:02.907Z,100808.34
2022-12-07T01:56:30.028Z,100808.63
2022-12-07T01:58:57.498Z,100802.56
2022-12-07T02:01:24.130Z,100804.69
2022-12-07T02:03:50.857Z,100805.09
2022-12-07T02:06:21.569Z,100800.97
2022-12-07T02:08:48.248Z,100799.03
2022-12-07T02:11:14.965Z,100804.06
2022-12-07T02:13:43.693Z,100802.91
2022-12-07T02:16:27.209Z,100806.25
2022-12-07T02:19:07.825Z,100795.56
2022-12-07T02:21:57.151Z,100796.34
2022-12-07T02:24:47.758Z,100794.50
2022-12-07T02:27:38.098Z,100795.28
2022-12-07T02:30:06.547Z,100796.09
2022-12-07T02:32:59.861Z,100798.69
2022-12-07T02:35:49.072Z,100795.00
2022-12-07T02:38:25.355Z,100787.78
2022-12-07T02:41:00.795Z,100783.09
2022-12-07T02:43:36.969Z,100789.94
2022-12-07T02:46:11.617Z,100792.28
2022-12-07T02:48:40.040Z,100792.81
2022-12-07T02:51:06.419Z,100799.63
2022-12-07T02:53:38.746Z,100796.38
2022-12-07T02:56:13.193Z,100788.75
2022-12-07T02:58:55.039Z,100785.63
2022-12-07T03:01:30.408Z,100787.81
2022-12-07T03:04:15.455Z,100790.88
2022-12-07T03:06:54.378Z,100790.28
2022-12-07T03:09:47.861Z,100788.84
2022-12-07T03:12:19.954Z,100788.13
2022-12-07T03:14:56.459Z,100789.94
2022-12-07T03:17:29.524Z,100782.09
2022-12-07T03:20:02.869Z,100782.09
2022-12-07T03:22:33.908Z,100779.41
2022-12-07T03:25:06.420Z,100783.03
2022-12-07T03:27:42.379Z,100784.03
2022-12-07T03:30:18.186Z,100787.66
2022-12-07T03:32:53.990Z,100784.84
2022-12-07T03:35:34.681Z,100781.34
2022-12-07T03:38:11.970Z,100777.97
2022-12-07T03:40:44.985Z,100772.78
2022-12-07T03:43:11.950Z,100769.41
2022-12-07T03:45:42.478Z,100776.53
2022-12-07T03:48:25.136Z,100781.16
2022-12-07T03:51:11.952Z,100774.09
2022-12-07T03:53:49.765Z,100772.53
2022-12-07T03:56:16.558Z,100779.00
2022-12-07T03:58:43.782Z,100771.19
2022-12-07T04:01:10.780Z,100769.63
2022-12-07T04:03:37.318Z,100774.38
2022-12-07T04:06:04.109Z,100778.97
2022-12-07T04:08:30.517Z,100781.88
2022-12-07T04:10:56.889Z,100782.00
2022-12-07T04:13:23.218Z,100776.09
2022-12-07T04:15:49.641Z,100776.34
2022-12-07T04:18:16.016Z,100781.78
2022-12-07T04:20:42.452Z,100774.88
2022-12-07T04:23:08.774Z,100774.19
2022-12-07T04:25:35.107Z,100779.63
2022-12-07T04:28:01.458Z,100778.78
2022-12-07T04:30:27.787Z,100772.63
2022-12-07T04:32:54.138Z,100776.97
2022-12-07T04:35:20.444Z,100771.53
2022-12-07T04:37:46.849Z,100773.22
2022-12-07T04:40:15.198Z,100771.28
2022-12-07T04:42:41.520Z,100772.00
2022-12-07T04:45:08.908Z,100775.38
2022-12-07T04:47:35.311Z,100776.94
2022-12-07T04:50:02.017Z,100779.47
2022-12-07T04:52:28.727Z,100776.56
2022-12-07T04:54:55.042Z,100776.44
2022-12-07T04:57:21.354Z,100776.31
2022-12-07T04:59:47.666Z,100780.69
2022-12-07T05:02:14.068Z,100778.59
2022-12-07T05:04:40.487Z,100772.44
2022-12-07T05:07:06.795Z,100772.44
2022-12-07T05:09:33.111Z,100771.47
2022-12-07T05:11:59.856Z,100775.84
2022-12-07T05:14:26.203Z,100782.09
2022-12-07T05:16:54.329Z,100776.06
2022-12-07T05:19:20.762Z,100783.19
2022-12-07T05:21:47.497Z,100781.63
2022-12-07T05:24:17.158Z,100780.78
2022-12-07T05:26:44.541Z,100777.28
2022-12-07T05:29:14.391Z,100777.28
2022-12-07T05:31:40.876Z,100771.97
2022-12-07T05:34:07.522Z,100769.16
2022-12-07T05:36:33.929Z,100780.69
2022-12-07T05:39:00.461Z,100777.88
2022-12-07T05:41:45.338Z,100771.59
2022-12-07T05:44:11.713Z,100775.09
2022-12-07T05:46:38.221Z,100768.06
2022-12-07T05:49:04.549Z,100766.38
2022-12-07T05:51:31.124Z,100772.69
2022-12-07T05:53:57.593Z,100768.31
2022-12-07T05:56:24.140Z,100780.91
2022-12-07T05:59:09.237Z,100766.91
2022-12-07T06:01:35.545Z,100768.84
2022-12-07T06:04:01.863Z,100762.66
2022-12-07T06:06:28.238Z,100768.94
2022-12-07T06:08:54.630Z,100774.41
2022-12-07T06:11:39.684Z,100769.09
2022-12-07T06:14:06.011Z,100772.69
2022-12-07T06:16:32.413Z,100770.78
2022-12-07T06:18:59.131Z,100765.44
2022-12-07T06:21:27.490Z,100769.81
2022-12-07T06:23:53.795Z,100769.81
2022-12-07T06:26:20.157Z,100779.47
2022-12-07T06:28:46.484Z,100768.84
2022-12-07T06:31:14.264Z,100766.03
2022-12-07T06:33:41.052Z,100764.25
2022-12-07T06:36:07.878Z,100762.41
2022-12-07T06:38:34.239Z,100768.59
2022-12-07T06:41:00.567Z,100776.69
2022-12-07T06:43:27.148Z,100777.81
2022-12-07T06:45:53.536Z,100778.03
2022-12-07T06:48:19.996Z,100774.03
2022-12-07T06:50:52.776Z,100775.41
2022-12-07T06:53:20.929Z,100779.41
2022-12-07T06:55:47.276Z,100779.03
2022-12-07T06:58:13.586Z,100782.19
2022-12-07T07:00:39.930Z,100775.53
2022-12-07T07:03:06.276Z,100780.38
2022-12-07T07:05:32.616Z,100780.75
2022-12-07T07:08:21.404Z,100781.22
2022-12-07T07:10:46.762Z,100784.13
2022-12-07T07:13:14.285Z,100779.06
2022-12-07T07:15:40.759Z,100780.25
2022-12-07T07:18:08.050Z,100783.16
2022-12-07T07:20:35.119Z,100795.00
2022-12-07T07:23:01.770Z,100792.59
2022-12-07T07:25:28.109Z,100788.34
2022-12-07T07:27:54.445Z,100794.63
2022-12-07T07:30:20.890Z,100791.97
2022-12-07T07:32:47.222Z,100794.75
2022-12-07T07:35:14.963Z,100801.78
2022-12-07T07:37:41.823Z,100798.97
2022-12-07T07:40:10.032Z,100791.84
2022-12-07T07:42:36.522Z,100798.03
2022-12-07T07:45:03.298Z,100804.31
2022-12-07T07:47:30.049Z,100800.69
2022-12-07T07:49:57.048Z,100806.00
2022-12-07T07:52:23.421Z,100807.69
2022-12-07T07:54:49.745Z,100804.06
2022-12-07T07:57:17.670Z,100812.75
2022-12-07T07:59:44.038Z,100809.16
2022-12-07T08:02:15.492Z,100804.69
2022-12-07T08:04:42.162Z,100812.53
2022-12-07T08:07:08.506Z,100813.38
2022-12-07T08:09:34.950Z,100802.88
2022-12-07T08:12:01.691Z,100802.03
2022-12-07T08:14:29.641Z,100800.31
2022-12-07T08:16:56.065Z,100795.00
2022-12-07T08:19:22.433Z,100795.97
2022-12-07T08:21:48.861Z,100804.06
2022-12-07T08:24:15.745Z,100803.22
2022-12-07T08:26:42.699Z,100806.00
2022-12-07T08:29:09.071Z,100817.50
2022-12-07T08:31:36.237Z,100812.28
2022-12-07T08:34:02.697Z,100812.41
2022-12-07T08:36:29.008Z,100808.78
2022-12-07T08:39:30.293Z,100806.84
2022-12-07T08:41:41.678Z,100813.84
2022-12-07T08:44:08.060Z,100808.28
2022-12-07T08:46:49.934Z,100804.53
2022-12-07T08:49:28.592Z,100808.69
2022-12-07T08:51:56.310Z,100807.59
2022-12-07T08:54:23.155Z,100812.66
2022-12-07T08:56:57.111Z,100802.50
2022-12-07T08:59:25.321Z,100808.91
2022-12-07T09:01:51.662Z,100808.56
2022-12-07T09:04:17.987Z,100801.06
2022-12-07T09:06:44.548Z,100803.22
2022-12-07T09:09:12.607Z,100800.09
2022-12-07T09:11:40.033Z,100802.97
2022-12-07T09:14:06.891Z,100808.53
2022-12-07T09:16:33.377Z,100809.50
2022-12-07T09:18:59.804Z,100810.66
2022-12-07T09:21:26.116Z,100805.47
2022-12-07T09:23:52.465Z,100808.50
2022-12-07T09:26:18.758Z,100808.72
2022-12-07T09:28:45.084Z,100808.09
2022-12-07T09:31:27.102Z,100806.59
2022-12-07T09:33:56.046Z,100805.00
2022-12-07T09:36:22.458Z,100806.31
2022-12-07T09:38:48.802Z,100806.63
2022-12-07T09:41:16.472Z,100803.47
2022-12-07T09:43:43.352Z,100805.50
2022-12-07T09:46:15.782Z,100804.81
2022-12-07T09:48:43.833Z,100804.31
2022-12-07T09:51:22.754Z,100810.81
2022-12-07T09:53:51.690Z,100800.59
2022-12-07T09:56:20.411Z,100802.88
2022-12-07T09:58:47.752Z,100794.47
2022-12-07T10:01:16.009Z,100794.09
2022-12-07T10:03:55.089Z,100794.66
2022-12-07T10:06:21.609Z,100795.38
2022-12-07T10:08:48.211Z,100804.94
2022-12-07T10:11:15.810Z,100791.44
2022-12-07T10:13:42.200Z,100792.16
2022-12-07T10:16:31.362Z,100780.28
2022-12-07T10:18:57.748Z,100784.50
2022-12-07T10:21:26.185Z,100771.88
2022-12-07T10:24:06.012Z,100774.00
2022-12-07T10:26:35.761Z,100773.59
2022-12-07T10:29:23.100Z,100766.03
2022-12-07T10:31:59.982Z,100772.78
2022-12-07T10:34:30.222Z,100776.72
2022-12-07T10:37:17.875Z,100772.81
2022-12-07T10:39:56.013Z,100771.41
2022-12-07T10:42:32.880Z,100765.81
2022-12-07T10:45:19.618Z,100768.06
2022-12-07T10:48:05.211Z,100766.78
2022-12-07T10:51:00.407Z,100774.28
2022-12-07T10:53:33.969Z,100764.16
2022-12-07T10:56:24.843Z,100768.09
2022-12-07T10:59:20.060Z,100770.25
2022-12-07T11:01:55.802Z,100757.44
2022-12-07T11:04:41.010Z,100756.16
2022-12-07T11:07:15.051Z,100754.91
2022-12-07T11:10:10.989Z,100761.94
2022-12-07T11:12:46.482Z,100750.28
2022-12-07T11:15:22.276Z,100751.13
2022-12-07T11:18:04.567Z,100742.81
2022-12-07T11:20:47.485Z,100742.69
2022-12-07T11:23:31.051Z,100739.84
2022-12-07T11:26:12.897Z,100742.25
2022-12-07T11:29:09.298Z,100734.66
2022-12-07T11:31:53.288Z,100731.28
2022-12-07T11:34:35.402Z,100726.06
2022-12-07T11:37:03.571Z,100723.72
2022-12-07T11:39:36.583Z,100714.97
2022-12-07T11:42:10.834Z,100717.34
2022-12-07T11:44:39.765Z,100705.25
2022-12-07T11:47:14.833Z,100699.47
2022-12-07T11:49:54.263Z,100697.50
2022-12-07T11:52:33.171Z,100698.34
2022-12-07T11:55:01.425Z,100695.66
2022-12-07T11:57:36.234Z,100701.00
2022-12-07T12:00:08.473Z,100702.56
2022-12-07T12:02:50.045Z,100687.22
2022-12-07T12:05:25.711Z,100688.44
2022-12-07T12:11:25.273Z,100689.50
2022-12-07T12:17:02.209Z,100667.63
2022-12-07T12:19:39.250Z,100670.72
2022-12-07T12:22:18.073Z,100671.38
2022-12-07T12:24:49.157Z,100674.91
2022-12-07T12:27:37.094Z,100671.25
2022-12-07T12:30:08.269Z,100668.44
2022-12-07T12:32:41.298Z,100678.97
2022-12-07T12:35:36.798Z,100672.47
2022-12-07T12:38:27.988Z,100661.63
2022-12-07T12:40:56.234Z,100663.31
2022-12-07T12:43:53.397Z,100656.09
2022-12-07T12:46:35.918Z,100659.63
2022-12-07T12:49:17.174Z,100661.47
2022-12-07T12:51:44.753Z,100659.78
2022-12-07T12:54:16.397Z,100652.72
2022-12-07T12:56:57.036Z,100649.38
2022-12-07T12:59:25.139Z,100651.38
2022-12-07T13:01:55.485Z,100654.88
2022-12-07T13:04:31.740Z,100641.38
2022-12-07T13:06:58.253Z,100648.25
2022-12-07T13:09:29.260Z,100638.06
2022-12-07T13:12:00.687Z,100644.81
2022-12-07T13:14:42.897Z,100629.28
2022-12-07T13:17:33.305Z,100640.69
2022-12-07T13:20:12.797Z,100643.91
2022-12-07T13:22:47.699Z,100631.53
2022-12-07T13:25:23.155Z,100632.03
2022-12-07T13:28:08.274Z,100630.91
2022-12-07T13:30:46.782Z,100628.94
2022-12-07T13:33:13.758Z,100622.56
2022-12-07T13:35:40.099Z,100613.38
2022-12-07T13:38:22.379Z,100616.91
2022-12-07T13:41:28.348Z,100619.88
2022-12-07T13:43:54.649Z,100608.78
2022-12-07T13:46:36.311Z,100621.66
2022-12-07T13:49:02.716Z,100618.72
2022-12-07T13:51:34.892Z,100601.44
2022-12-07T13:54:09.914Z,100608.94
2022-12-07T13:56:42.887Z,100604.88
2022-12-07T13:59:22.006Z,100598.97
2022-12-07T14:01:50.189Z,100608.16
2022-12-07T14:04:37.691Z,100600.25
2022-12-07T14:07:21.047Z,100598.72
2022-12-07T14:10:07.229Z,100598.19
2022-12-07T14:12:37.338Z,100604.69
2022-12-07T14:15:04.976Z,100608.66
2022-12-07T14:17:31.711Z,100601.78
2022-12-07T14:20:02.362Z,100610.66
2022-12-07T14:22:37.594Z,100599.09
2022-12-07T14:25:18.124Z,100602.63
2022-12-07T14:27:59.506Z,100598.94
2022-12-07T14:30:31.207Z,100596.97
2022-12-07T14:33:03.404Z,100599.63
2022-12-07T14:35:31.807Z,100595.28
2022-12-07T14:37:58.756Z,100590.06
2022-12-07T14:40:29.426Z,100599.25
2022-12-07T14:43:00.965Z,100591.53
2022-12-07T14:45:27.282Z,100597.31
2022-12-07T14:53:36.603Z,100584.28
2022-12-07T14:56:06.252Z,100589.53
2022-12-07T14:58:33.431Z,100580.41
2022-12-07T15:01:00.549Z,100584.69
2022-12-07T15:03:27.035Z,100582.44
2022-12-07T15:05:53.656Z,100585.41
2022-12-07T15:08:20.078Z,100581.34
2022-12-07T15:10:46.518Z,100583.56
2022-12-07T15:13:31.148Z,100570.66
2022-12-07T15:15:57.920Z,100561.38
2022-12-07T15:18:24.872Z,100569.84
2022-12-07T15:20:51.445Z,100573.06
2022-12-07T15:23:18.077Z,100570.88
2022-12-07T15:25:47.018Z,100572.25
2022-12-07T15:28:13.558Z,100574.50
2022-12-07T15:30:44.636Z,100570.59
2022-12-07T15:33:12.651Z,100569.34
2022-12-07T15:35:40.729Z,100578.66
2022-12-07T15:38:07.648Z,100570.22
2022-12-07T15:40:33.969Z,100572.31
2022-12-07T15:43:00.275Z,100578.09
2022-12-07T15:45:26.724Z,100573.88
2022-12-07T15:48:26.965Z,100573.31
2022-12-07T15:50:45.227Z,100570.91
2022-12-07T15:53:11.573Z,100566.00
2022-12-07T15:55:39.971Z,100569.94
2022-12-07T15:58:06.738Z,100570.25
2022-12-07T16:00:33.611Z,100571.34
2022-12-07T16:02:59.986Z,100561.66
2022-12-07T16:05:26.370Z,100560.94
2022-12-07T16:07:52.811Z,100562.63
2022-12-07T16:10:19.145Z,100561.66
2022-12-07T16:12:45.520Z,100561.66
2022-12-07T16:15:12.012Z,100553.50
2022-12-07T16:17:38.372Z,100563.19
2022-12-07T16:20:05.578Z,100560.41
2022-12-07T16:22:32.205Z,100556.72
2022-12-07T16:24:58.503Z,100553.09
2022-12-07T16:27:24.908Z,100555.47
2022-12-07T16:29:51.389Z,100551.69
2022-12-07T16:32:17.750Z,100548.84
2022-12-07T16:34:44.194Z,100539.03
2022-12-07T16:37:10.656Z,100545.78
2022-12-07T16:39:36.985Z,100539.31
2022-12-07T16:42:03.800Z,100526.66
2022-12-07T16:44:31.513Z,100533.66
2022-12-07T16:46:57.988Z,100523.81
2022-12-07T16:49:24.989Z,100521.03
2022-12-07T16:52:08.556Z,100517.34
2022-12-07T16:54:38.001Z,100535.91
2022-12-07T16:57:04.576Z,100527.06
2022-12-07T16:59:30.928Z,100524.69
2022-12-07T17:01:57.267Z,100533.13
2022-12-07T17:04:23.676Z,100522.88
2022-12-07T17:06:50.133Z,100515.44
2022-12-07T17:09:21.074Z,100506.19
2022-12-07T17:14:33.711Z,100506.19
2022-12-07T17:17:00.756Z,100510.97
2022-12-07T17:19:27.152Z,100510.38
2022-12-07T17:21:53.741Z,100514.19
2022-12-07T17:24:20.134Z,100505.63
2022-12-07T17:26:47.828Z,100505.91
2022-12-07T17:29:16.022Z,100507.03
2022-12-07T17:31:47.722Z,100504.50
2022-12-07T17:34:17.330Z,100501.00
2022-12-07T17:36:44.101Z,100504.50
2022-12-07T17:39:12.407Z,100501.97
2022-12-07T17:41:57.374Z,100500.16
2022-12-07T17:44:24.145Z,100498.31
2022-12-07T17:46:55.369Z,100497.47
2022-12-07T17:49:21.857Z,100493.81
2022-12-07T17:52:06.721Z,100487.66
2022-12-07T17:54:33.088Z,100478.66
2022-12-07T17:56:59.681Z,100480.34
2022-12-07T17:59:26.151Z,100481.31
2022-12-07T18:01:53.068Z,100481.19
2022-12-07T18:04:19.494Z,100479.53
2022-12-07T18:06:50.435Z,100478.66
2022-12-07T18:09:18.843Z,100470.81
2022-12-07T18:11:45.181Z,100471.63
2022-12-07T18:14:11.486Z,100475.31
2022-12-07T18:16:38.058Z,100467.56
2022-12-07T18:19:06.363Z,100465.75
2022-12-07T18:21:33.429Z,100464.06
2022-12-07T18:24:02.505Z,100455.34
2022-12-07T18:26:30.756Z,100464.34
2022-12-07T18:29:00.006Z,100460.97
2022-12-07T18:31:26.743Z,100455.78
2022-12-07T18:33:55.985Z,100468.41
2022-12-07T18:36:23.442Z,100473.88
2022-12-07T18:38:50.734Z,100467.59
2022-12-07T18:41:17.082Z,100466.88
2022-12-07T18:43:43.468Z,100452.69
2022-12-07T18:46:18.825Z,100461.53
2022-12-07T18:48:45.705Z,100460.69
2022-12-07T18:51:14.718Z,100454.53
2022-12-07T18:53:41.492Z,100458.16
2022-12-07T18:56:13.354Z,100450.31
2022-12-07T18:59:00.632Z,100448.78
2022-12-07T19:01:27.147Z,100446.34
2022-12-07T19:03:53.587Z,100449.31
2022-12-07T19:06:20.064Z,100444.25
2022-12-07T19:08:46.385Z,100440.06
2022-12-07T19:11:38.486Z,100450.00
2022-12-07T19:14:04.869Z,100435.00
2022-12-07T19:16:31.969Z,100436.13
2022-12-07T19:18:58.351Z,100438.78
2022-12-07T19:21:25.082Z,100440.75
2022-12-07T19:23:51.719Z,100444.41
2022-12-07T19:26:18.018Z,100438.38
2022-12-07T19:28:44.452Z,100440.31
2022-12-07T19:31:13.926Z,100428.94
2022-12-07T19:33:41.162Z,100435.28
2022-12-07T19:36:08.015Z,100423.91
2022-12-07T19:38:34.374Z,100429.50
2022-12-07T19:41:08.565Z,100427.69
2022-12-07T19:43:34.937Z,100420.81
2022-12-07T19:46:06.221Z,100422.50
2022-12-07T19:48:33.097Z,100419.97
2022-12-07T19:51:04.303Z,100416.34
2022-12-07T19:53:33.547Z,100422.34
2022-12-07T19:55:59.888Z,100417.88
2022-12-07T19:58:26.428Z,100415.22
2022-12-07T20:00:52.872Z,100408.78
2022-12-07T20:03:19.577Z,100407.78
2022-12-07T20:05:46.003Z,100404.97
2022-12-07T20:08:12.555Z,100395.00
2022-12-07T20:10:39.619Z,100391.38
2022-12-07T20:13:24.680Z,100387.00
2022-12-07T20:15:51.016Z,100396.72
2022-12-07T20:18:17.365Z,100399.38
2022-12-07T20:20:53.296Z,100391.38
2022-12-07T20:23:19.721Z,100402.03
2022-12-07T20:25:46.057Z,100386.03
2022-12-07T20:28:12.644Z,100377.06
2022-12-07T20:30:46.570Z,100368.06
2022-12-07T20:33:13.005Z,100369.75
2022-12-07T20:35:39.363Z,100370.72
2022-12-07T20:38:05.788Z,100367.09
2022-12-07T20:40:32.109Z,100363.72
2022-12-07T20:42:58.466Z,100361.34
2022-12-07T20:45:24.849Z,100357.13
2022-12-07T20:47:51.264Z,100364.44
2022-12-07T20:50:17.668Z,100364.72
2022-12-07T20:52:44.029Z,100359.66
2022-12-07T20:55:10.530Z,100344.78
2022-12-07T20:57:36.913Z,100354.88
2022-12-07T21:00:06.698Z,100350.69
2022-12-07T21:02:33.734Z,100348.28
2022-12-07T21:05:00.795Z,100339.75
2022-12-07T21:07:27.464Z,100352.50
2022-12-07T21:09:53.800Z,100344.94
2022-12-07T21:12:20.159Z,100349.81
2022-12-07T21:14:46.536Z,100347.56
2022-12-07T21:17:12.897Z,100346.19
2022-12-07T21:19:39.311Z,100347.41
2022-12-07T21:22:05.771Z,100344.19
2022-12-07T21:24:32.275Z,100346.16
2022-12-07T21:26:58.606Z,100346.44
2022-12-07T21:29:42.220Z,100345.72
2022-12-07T21:32:10.608Z,100350.06
2022-12-07T21:34:36.989Z,100350.06
2022-12-07T21:37:03.493Z,100357.22
2022-12-07T21:39:29.845Z,100354.53
2022-12-07T21:41:56.155Z,100358.03
2022-12-07T21:44:22.585Z,100350.94
2022-12-07T21:46:48.932Z,100345.44
2022-12-07T21:49:15.744Z,100337.59
2022-12-07T21:51:43.076Z,100329.63
2022-12-07T21:54:11.993Z,100334.94
2022-12-07T21:56:40.970Z,100331.41
2022-12-07T21:59:11.553Z,100322.59
2022-12-07T22:01:40.718Z,100324.53
2022-12-07T22:04:09.693Z,100324.53
2022-12-07T22:06:37.097Z,100324.69
2022-12-07T22:09:04.842Z,100316.84
2022-12-07T22:11:31.178Z,100323.16
2022-12-07T22:14:16.172Z,100317.13
2022-12-07T22:16:42.665Z,100318.94
2022-12-07T22:19:09.116Z,100321.72
2022-12-07T22:21:35.781Z,100320.06
2022-12-07T22:24:03.224Z,100316.69
2022-12-07T22:26:29.946Z,100310.53
2022-12-07T22:28:56.284Z,100308.94
2022-12-07T22:31:23.140Z,100313.56
2022-12-07T22:33:50.245Z,100313.56
2022-12-07T22:36:18.041Z,100307.41
2022-12-07T22:38:44.656Z,100316.50
2022-12-07T22:41:18.346Z,100312.16
2022-12-07T22:43:44.824Z,100313.13
2022-12-07T22:46:11.268Z,100309.63
2022-12-07T22:48:37.702Z,100314.13
2022-12-07T22:51:04.360Z,100314.94
2022-12-07T22:53:31.012Z,100309.50
2022-12-07T22:55:57.390Z,100308.50
2022-12-07T22:58:23.704Z,100299.53
2022-12-07T23:00:50.026Z,100301.94
2022-12-07T23:03:16.483Z,100298.28
2022-12-07T23:05:47.857Z,100294.56
2022-12-07T23:08:15.076Z,100285.56
2022-12-07T23:10:43.657Z,100276.63
2022-12-07T23:13:31.387Z,100278.16
2022-12-07T23:16:12.079Z,100281.78
2022-12-07T23:18:40.279Z,100279.13
2022-12-07T23:21:07.232Z,100273.13
2022-12-07T23:23:34.277Z,100272.38
2022-12-07T23:26:09.332Z,100268.19
2022-12-07T23:28:36.869Z,100269.28
2022-12-07T23:31:08.824Z,100262.28
2022-12-07T23:33:35.240Z,100251.91
2022-12-07T23:36:10.301Z,100253.84
2022-12-07T23:38:37.086Z,100255.97
2022-12-07T23:41:08.918Z,100243.75
2022-12-07T23:43:36.925Z,100238.84
2022-12-07T23:46:07.056Z,100243.63
2022-12-07T23:48:35.241Z,100248.38
2022-12-07T23:51:01.908Z,100250.47
2022-12-07T23:53:29.603Z,100238.53
2022-12-07T23:55:56.325Z,100236.28
2022-12-07T23:58:22.952Z,100233.91
